Flight Track Log - Related Links

Times and Time Zones

All times are in EDT time to prevent confusion due to time zone crossing. See the EJA102 flight status page for this flight to view local times or setup timezone preferences in your user account.

Time Position Orientation Groundspeed Altitude Reporting Facility
EDT Latitude Longitude Course Direction KTS MPH feet Rate Location/Type
Mon 08:05:54 AM 32.1889 -80.8036 310° West 203 234 8,300  Level Jacksonville Center
Mon 08:06:54 AM 32.2314 -80.8517 316° Northwest 223 257 11,200 2,700 Climbing Jacksonville Center
Mon 08:07:54 AM 32.2889 -80.9217 314° West 263 303 13,700 2,150 Climbing Jacksonville Center
Mon 08:08:54 AM 32.3442 -80.9894 314° West 288 331 15,500 1,150 Climbing Jacksonville Center
Mon 08:09:54 AM 32.4017 -81.0569 315° West 302 348 16,000 250 Climbing Jacksonville Center
Mon 08:10:00 AM 32.5692 -81.1954 308° West  Level FlightAware Approximate
Mon 08:10:54 AM 32.4803 -81.1539 314° West 353 406 16,000  Level Jacksonville Center
Mon 08:11:00 AM 32.6291 -81.2806 310° West  Level FlightAware Approximate
Mon 08:11:54 AM 32.5567 -81.2436 315° West 387 445 16,000  Level Jacksonville Center
Mon 08:12:54 AM 32.6308 -81.3361 314° West 390 449 16,000  Level Jacksonville Center
Mon 08:13:54 AM 32.7092 -81.4236 317° Northwest 390 449 16,000  Level Jacksonville Center
Mon 08:14:54 AM 32.7833 -81.5186 313° West 390 449 16,000  Level Jacksonville Center
Mon 08:16:28 AM 32.8842 -81.6617 310° West 402 463 16,000  Level Atlanta Center
Mon 08:17:28 AM 32.9572 -81.7736 308° West 396 456 16,000  Level Atlanta Center
Mon 08:18:28 AM 33.0236 -81.8736 308° West 396 456 16,000  Level Atlanta Center
Mon 08:19:28 AM 33.0903 -81.9783 307° West 396 456 16,000  Level Atlanta Center
Mon 08:20:28 AM 33.1567 -82.0811 308° West 396 456 16,000 -500 Level Atlanta Center
Mon 08:21:28 AM 33.2250 -82.1839 308° West 396 456 15,000 -1,350 Descending Atlanta Center
Mon 08:22:28 AM 33.2892 -82.2844 307° West 390 449 13,300 -1,550 Descending Atlanta Center
Mon 08:23:28 AM 33.3383 -82.3703 304° West 392 451 11,900 -1,500 Descending Atlanta Center
Mon 08:24:28 AM 33.4128 -82.4783 310° West 373 429 10,300 -900 Descending Atlanta Center
Mon 08:25:28 AM 33.4703 -82.5694 307° West 358 412 10,100 -150 Descending Atlanta Center
Mon 08:26:28 AM 33.5278 -82.6633 306° West 353 406 10,000 -50 Descending Atlanta Center
Mon 08:27:28 AM 33.5872 -82.7519 309° West 353 406 10,000 -50 Level Atlanta Center
Mon 08:28:28 AM 33.6339 -82.8286 306° West 347 399 9,900 -1,100 Descending Atlanta Center
Mon 08:29:28 AM 33.6825 -82.9056 307° West 310 357 7,800 -2,250 Descending Atlanta Center
Mon 08:30:28 AM 33.7250 -82.9722 307° West 280 322 5,400 -2,400 Descending Atlanta Center
Mon 08:31:28 AM 33.7714 -83.0492 306° West 261 300 3,000 -1,200 Descending Atlanta Center
Mon 08:32:28 AM 33.8158 -83.1161 309° West 256 295 3,000  Level Atlanta Center
Mon 08:33:28 AM 33.8581 -83.1833 307° West 256 295 3,000 -400 Level Atlanta Center
Mon 08:34:28 AM 33.9044 -83.2428 313° West 249 287 2,200 -700 Descending Atlanta Center
Mon 08:35:28 AM 33.9422 -83.2825 319° Northwest 220 253 1,600 -500 Descending Atlanta Center
Mon 08:36:28 AM 33.9739 -83.3325 307° West 198 228 1,200 -400 Descending Atlanta Center
Mon 08:38:00 AM 33.9486 -83.3264 North  Level Estimated

Login

Don't have an account? Register now (free) for customized features, flight alerts, and more!